createdAt,value
2018-09-10T00:00:26.353Z,89.69
2018-09-10T00:01:36.436Z,90.22
2018-09-10T00:02:46.769Z,90.26
2018-09-10T00:03:56.844Z,90.22
2018-09-10T00:05:06.935Z,90.12
2018-09-10T00:06:17.013Z,89.83
2018-09-10T00:07:26.563Z,90.03
2018-09-10T00:08:36.704Z,90.22
2018-09-10T00:09:46.534Z,90.22
2018-09-10T00:10:56.608Z,90.22
2018-09-10T00:12:06.429Z,89.93
2018-09-10T00:13:16.493Z,90.12
2018-09-10T00:14:26.365Z,90.22
2018-09-10T00:15:36.200Z,90.12
2018-09-10T00:16:46.031Z,89.93
2018-09-10T00:17:56.105Z,90.03
2018-09-10T00:19:06.231Z,90.31
2018-09-10T00:20:16.333Z,90.12
2018-09-10T00:21:26.422Z,90.03
2018-09-10T00:22:36.509Z,90.03
2018-09-10T00:23:46.583Z,90.03
2018-09-10T00:24:56.648Z,90.12
2018-09-10T00:26:06.718Z,90.12
2018-09-10T00:27:16.781Z,90.03
2018-09-10T00:28:26.856Z,90.03
2018-09-10T00:29:36.945Z,89.83
2018-09-10T00:30:47.010Z,89.64
2018-09-10T00:31:57.079Z,89.74
2018-09-10T00:33:07.165Z,89.36
2018-09-10T00:34:17.478Z,89.93
2018-09-10T00:35:27.283Z,89.45
2018-09-10T00:36:37.102Z,89.83
2018-09-10T00:37:46.917Z,89.64
2018-09-10T00:38:56.987Z,89.64
2018-09-10T00:40:07.058Z,89.45
2018-09-10T00:41:17.118Z,89.93
2018-09-10T00:42:27.207Z,89.74
2018-09-10T00:43:37.343Z,89.64
2018-09-10T00:44:47.425Z,90.22
2018-09-10T00:45:57.271Z,90.03
2018-09-10T00:47:07.377Z,89.98
2018-09-10T00:48:17.501Z,89.93
2018-09-10T00:49:27.736Z,89.98
2018-09-10T00:50:37.821Z,90.12
2018-09-10T00:51:47.881Z,90.08
2018-09-10T00:52:57.967Z,89.98
2018-09-10T00:54:08.243Z,90.08
2018-09-10T00:55:18.360Z,90.08
2018-09-10T00:56:28.440Z,90.17
2018-09-10T00:57:38.526Z,89.89
2018-09-10T00:58:48.331Z,89.98
2018-09-10T00:59:57.931Z,89.98
2018-09-10T01:01:07.733Z,89.98
2018-09-10T01:02:17.842Z,89.89
2018-09-10T01:03:27.681Z,89.89
2018-09-10T01:04:37.764Z,89.98
2018-09-10T01:05:47.849Z,90.17
2018-09-10T01:06:57.917Z,90.27
2018-09-10T01:08:07.839Z,90.27
2018-09-10T01:09:17.952Z,90.08
2018-09-10T01:10:28.029Z,90.17
2018-09-10T01:11:37.834Z,90.17
2018-09-10T01:12:47.917Z,90.17
2018-09-10T01:13:57.739Z,89.98
2018-09-10T01:15:08.067Z,90.17
2018-09-10T01:16:18.136Z,90.17
2018-09-10T01:17:28.204Z,90.08
2018-09-10T01:18:38.264Z,89.79
2018-09-10T01:19:48.337Z,89.5
2018-09-10T01:20:58.432Z,89.79
2018-09-10T01:22:08.505Z,89.6
2018-09-10T01:23:18.590Z,89.79
2018-09-10T01:24:28.547Z,89.69
2018-09-10T01:25:38.630Z,90.03
2018-09-10T01:26:48.697Z,90.03
2018-09-10T01:27:58.779Z,90.08
2018-09-10T01:29:08.880Z,90.13
2018-09-10T01:30:18.753Z,90.13
2018-09-10T01:31:29.066Z,90.03
2018-09-10T01:32:38.882Z,90.03
2018-09-10T01:33:48.952Z,89.36
2018-09-10T01:34:59.014Z,89.75
2018-09-10T01:36:09.087Z,89.75
2018-09-10T01:37:19.181Z,89.75
2018-09-10T01:38:29.254Z,90.13
2018-09-10T01:39:39.316Z,89.94
2018-09-10T01:40:49.135Z,89.94
2018-09-10T01:41:59.310Z,89.94
2018-09-10T01:43:09.388Z,90.03
2018-09-10T01:44:19.478Z,90.03
2018-09-10T01:45:29.544Z,89.94
2018-09-10T01:46:39.361Z,89.75
2018-09-10T01:47:49.477Z,90.03
2018-09-10T01:48:59.572Z,90.13
2018-09-10T01:50:09.395Z,89.94
2018-09-10T01:51:19.456Z,89.55
2018-09-10T01:52:29.266Z,89.75
2018-09-10T01:53:39.341Z,89.55
2018-09-10T01:54:49.410Z,89.36
2018-09-10T01:55:59.487Z,89.36
2018-09-10T01:57:09.316Z,89.26
2018-09-10T01:58:19.409Z,89.75
2018-09-10T01:59:29.222Z,89.55
2018-09-10T02:00:39.319Z,89.65
2018-09-10T02:01:49.384Z,89.55
2018-09-10T02:02:59.186Z,89.26
2018-09-10T02:04:09.276Z,89.36
2018-09-10T02:05:19.103Z,89.55
2018-09-10T02:06:28.656Z,89.75
2018-09-10T02:07:38.737Z,90.03
2018-09-10T02:08:48.819Z,90.13
2018-09-10T02:09:58.625Z,89.94
2018-09-10T02:11:08.597Z,90.13
2018-09-10T02:12:18.403Z,90.03
2018-09-10T02:13:27.955Z,89.94
2018-09-10T02:14:38.024Z,89.94
2018-09-10T02:15:47.831Z,90.13
2018-09-10T02:16:58.031Z,89.94
2018-09-10T02:18:07.981Z,90.03
2018-09-10T02:19:17.779Z,90.03
2018-09-10T02:20:27.717Z,89.84
2018-09-10T02:21:37.878Z,90.03
2018-09-10T02:22:47.696Z,89.94
2018-09-10T02:23:57.497Z,90.03
2018-09-10T02:25:07.575Z,89.89
2018-09-10T02:26:17.656Z,89.99
2018-09-10T02:27:27.876Z,90.08
2018-09-10T02:28:38.460Z,89.94
2018-09-10T02:29:48.553Z,89.79
2018-09-10T02:30:58.637Z,89.84
2018-09-10T02:32:08.737Z,89.84
2018-09-10T02:33:18.819Z,89.99
2018-09-10T02:34:28.640Z,89.79
2018-09-10T02:35:38.716Z,89.89
2018-09-10T02:36:48.806Z,89.89
2018-09-10T02:37:58.885Z,89.79
2018-09-10T02:39:08.984Z,90.08
2018-09-10T02:40:19.037Z,89.99
2018-09-10T02:41:28.877Z,89.7
2018-09-10T02:42:38.950Z,89.79
2018-09-10T02:43:48.797Z,89.51
2018-09-10T02:44:58.888Z,89.51
2018-09-10T02:46:08.761Z,89.7
2018-09-10T02:47:18.567Z,89.51
2018-09-10T02:48:28.664Z,89.51
2018-09-10T02:49:38.742Z,89.7
2018-09-10T02:50:48.826Z,89.51
2018-09-10T02:51:58.650Z,89.61
2018-09-10T02:53:08.733Z,89.51
2018-09-10T02:54:19.076Z,89.51
2018-09-10T02:55:29.164Z,89.51
2018-09-10T02:56:39.251Z,89.61
2018-09-10T02:57:49.421Z,89.41
2018-09-10T02:58:59.226Z,89.51
2018-09-10T03:00:09.296Z,89.41
2018-09-10T03:01:19.377Z,89.7
2018-09-10T03:02:29.467Z,89.61
2018-09-10T03:34:43.152Z,84.41
2018-09-10T03:35:53.230Z,84.88
2018-09-10T03:37:03.293Z,85.27
2018-09-10T03:38:13.124Z,86.61
2018-09-10T03:39:23.173Z,86.61
2018-09-10T03:40:33.036Z,87.52
2018-09-10T03:41:43.128Z,87.76
2018-09-10T03:42:52.940Z,88.33
2018-09-10T03:44:03.011Z,88.43
2018-09-10T03:45:12.801Z,88.9
2018-09-10T03:46:22.872Z,89.14
2018-09-10T03:47:33.038Z,88.85
2018-09-10T03:48:42.853Z,89.33
2018-09-10T03:49:52.945Z,89.72
2018-09-10T03:51:02.966Z,89.72
2018-09-10T03:52:12.793Z,89.47
2018-09-10T03:53:22.882Z,89.57
2018-09-10T03:54:32.970Z,89.14
2018-09-10T03:55:43.051Z,89.37
2018-09-10T03:56:53.142Z,89.57
2018-09-10T03:58:03.280Z,89.47
2018-09-10T03:59:13.342Z,89.37
2018-09-10T04:00:23.415Z,89.47
2018-09-10T04:01:33.241Z,89.37
2018-09-10T04:02:43.315Z,89.23
2018-09-10T04:03:53.221Z,89.42
2018-09-10T04:05:03.635Z,89.61
2018-09-10T04:06:13.713Z,89.42
2018-09-10T04:07:23.799Z,89.61
2018-09-10T04:08:33.632Z,89.42
2018-09-10T04:09:43.705Z,89.47
2018-09-10T04:10:53.781Z,89.13
2018-09-10T04:12:03.862Z,89.37
2018-09-10T04:13:13.958Z,89.37
2018-09-10T04:14:24.039Z,89.65
2018-09-10T04:15:34.114Z,89.56
2018-09-10T04:16:44.184Z,89.75
2018-09-10T04:17:54.254Z,89.47
2018-09-10T04:19:04.352Z,89.27
2018-09-10T04:20:14.435Z,89.27
2018-09-10T04:21:24.237Z,89.47
2018-09-10T04:22:34.289Z,89.27
2018-09-10T04:23:44.368Z,89.65
2018-09-10T04:24:54.687Z,89.47
2018-09-10T04:26:05.026Z,89.27
2018-09-10T04:27:15.483Z,89.27
2018-09-10T04:28:25.801Z,89.27
2018-09-10T04:29:35.867Z,89.56
2018-09-10T04:30:45.658Z,89.18
2018-09-10T04:31:55.732Z,89.56
2018-09-10T04:33:05.957Z,89.7
2018-09-10T04:34:16.052Z,89.7
2018-09-10T04:35:25.614Z,89.79
2018-09-10T04:36:35.689Z,89.7
2018-09-10T04:37:45.777Z,89.32
2018-09-10T04:38:55.661Z,89.51
2018-09-10T04:40:05.734Z,89.03
2018-09-10T04:41:15.816Z,88.84
2018-09-10T04:42:26.243Z,89.03
2018-09-10T04:43:36.394Z,88.59
2018-09-10T04:44:46.475Z,88.11
2018-09-10T04:45:56.298Z,87.73
2018-09-10T04:47:06.366Z,87.87
2018-09-10T04:48:16.472Z,87.19
2018-09-10T04:49:26.536Z,86.85
2018-09-10T04:50:36.644Z,87.24
2018-09-10T04:51:46.447Z,87.34
2018-09-10T04:52:56.541Z,87.77
2018-09-10T04:54:06.367Z,88.25
2018-09-10T04:55:16.188Z,88.49
2018-09-10T04:56:26.266Z,87.92
2018-09-10T04:57:36.357Z,88.3
2018-09-10T04:58:46.436Z,88.1
2018-09-10T04:59:55.991Z,88.87
2018-09-10T05:01:06.093Z,88.78
2018-09-10T05:02:16.232Z,88.2
2018-09-10T05:03:26.043Z,88.24
2018-09-10T05:04:36.341Z,88.15
2018-09-10T05:05:46.362Z,88.68
2018-09-10T05:06:56.684Z,88.3
2018-09-10T05:08:06.506Z,88.87
2018-09-10T05:09:16.590Z,88.78
2018-09-10T05:10:26.159Z,88.78
2018-09-10T05:11:35.725Z,88.82
2018-09-10T05:12:45.798Z,88.82
2018-09-10T05:13:55.920Z,89.01
2018-09-10T05:15:05.757Z,88.92
2018-09-10T05:16:15.839Z,88.73
2018-09-10T05:17:25.953Z,89.01
2018-09-10T05:18:36.034Z,89.15
2018-09-10T05:19:46.149Z,88.96
2018-09-10T05:20:56.231Z,88.87
2018-09-10T05:22:06.554Z,88.87
2018-09-10T05:23:16.921Z,88.87
2018-09-10T05:24:27.017Z,88.77
2018-09-10T05:25:37.095Z,88.77
2018-09-10T05:26:47.188Z,88.43
2018-09-10T05:27:57.294Z,88.33
2018-09-10T05:29:07.538Z,88.33
2018-09-10T05:30:17.614Z,88.71
2018-09-10T05:31:27.422Z,88.33
2018-09-10T05:32:37.313Z,88.43
2018-09-10T05:33:47.402Z,88.81
2018-09-10T05:34:57.476Z,88.71
2018-09-10T05:36:07.571Z,88.71
2018-09-10T05:37:17.646Z,88.57
2018-09-10T05:38:27.727Z,88.67
2018-09-10T05:39:37.805Z,88.09
2018-09-10T05:40:47.885Z,88.38
2018-09-10T05:41:57.968Z,88.57
2018-09-10T05:43:08.559Z,88.32
2018-09-10T05:44:18.641Z,87.94
2018-09-10T05:45:28.724Z,88.23
2018-09-10T05:46:38.797Z,88.32
2018-09-10T05:47:48.616Z,88.42
2018-09-10T05:48:58.752Z,88.51
2018-09-10T05:50:08.845Z,88.32
2018-09-10T05:51:18.716Z,88.51
2018-09-10T05:52:28.815Z,88.32
2018-09-10T05:53:38.628Z,87.7
2018-09-10T05:54:48.442Z,87.79
2018-09-10T05:55:58.529Z,88.65
2018-09-10T05:57:08.451Z,88.37
2018-09-10T05:58:18.263Z,88.75
2018-09-10T05:59:28.071Z,88.56
2018-09-10T06:00:37.891Z,88.56
2018-09-10T06:01:48.049Z,88.51
2018-09-10T06:02:58.366Z,88.46
2018-09-10T06:04:08.273Z,88.46
2018-09-10T06:05:18.352Z,88.37
2018-09-10T06:06:28.483Z,88.56
2018-09-10T06:07:38.548Z,88.65
2018-09-10T06:08:48.866Z,88.17
2018-09-10T06:09:58.452Z,88.37
2018-09-10T06:11:08.521Z,88.17
2018-09-10T06:12:18.595Z,88.37
2018-09-10T06:13:28.697Z,88.65
2018-09-10T06:14:39.019Z,88.65
2018-09-10T06:15:49.112Z,88.75
2018-09-10T06:16:59.193Z,89.04
2018-09-10T06:18:08.999Z,89.14
2018-09-10T06:19:19.085Z,88.95
2018-09-10T06:20:28.650Z,88.95
2018-09-10T06:21:38.716Z,89.04
2018-09-10T06:22:48.800Z,88.46
2018-09-10T06:23:58.865Z,88.56
2018-09-10T06:25:08.958Z,88.56
2018-09-10T06:26:19.121Z,88.56
2018-09-10T06:27:29.223Z,88.56
2018-09-10T06:28:39.309Z,88.46
2018-09-10T06:29:49.108Z,88.56
2018-09-10T06:30:59.172Z,88.46
2018-09-10T06:32:09.273Z,88.7
2018-09-10T06:33:19.339Z,88.6
2018-09-10T06:34:29.404Z,88.41
2018-09-10T06:35:39.626Z,88.12
2018-09-10T06:36:49.443Z,88.41
2018-09-10T06:37:59.617Z,88.31
2018-09-10T06:39:09.700Z,88.41
2018-09-10T06:40:19.767Z,88.41
2018-09-10T06:41:29.847Z,88.31
2018-09-10T06:42:39.658Z,88.26
2018-09-10T06:43:49.751Z,87.97
2018-09-10T06:44:59.844Z,87.97
2018-09-10T06:46:09.936Z,88.07
2018-09-10T06:47:20.008Z,88.07
2018-09-10T06:48:29.565Z,87.97
2018-09-10T06:49:39.116Z,88.17
2018-09-10T06:50:49.184Z,87.82
2018-09-10T06:51:59.251Z,87.82
2018-09-10T06:53:09.347Z,88.02
2018-09-10T06:54:19.426Z,87.82
2018-09-10T06:55:29.565Z,87.82
2018-09-10T06:56:39.664Z,87.92
2018-09-10T06:57:49.743Z,88.31
2018-09-10T06:58:59.824Z,88.21
2018-09-10T07:00:09.789Z,87.92
2018-09-10T07:01:19.377Z,88.21
2018-09-10T07:02:29.452Z,87.82
2018-09-10T07:03:39.533Z,88.15
2018-09-10T07:04:49.606Z,88.21
2018-09-10T07:05:59.428Z,88.15
2018-09-10T07:07:09.589Z,88.06
2018-09-10T07:08:19.719Z,88.25
2018-09-10T07:09:29.801Z,88.45
2018-09-10T07:10:39.368Z,88.11
2018-09-10T07:11:49.451Z,88.54
2018-09-10T07:12:59.678Z,88.54
2018-09-10T07:14:10.219Z,88.25
2018-09-10T07:15:20.035Z,88.15
2018-09-10T07:16:29.578Z,88.15
2018-09-10T07:17:39.650Z,87.87
2018-09-10T07:18:50.175Z,88.15
2018-09-10T07:20:00.841Z,88.54
2018-09-10T07:21:10.919Z,88.54
2018-09-10T07:22:21.244Z,88.2
2018-09-10T07:23:31.349Z,88.54
2018-09-10T07:24:41.485Z,88.78
2018-09-10T07:25:51.560Z,88.49
2018-09-10T07:27:01.643Z,88.59
2018-09-10T07:28:11.723Z,88.59
2018-09-10T07:29:21.607Z,88.39
2018-09-10T07:30:31.472Z,87.81
2018-09-10T07:31:41.612Z,88.2
2018-09-10T07:32:51.686Z,88.68
2018-09-10T07:34:01.754Z,88.1
2018-09-10T07:35:11.818Z,87.81
2018-09-10T07:36:21.419Z,87.71
2018-09-10T07:37:31.511Z,87.81
2018-09-10T07:38:41.595Z,87.71
2018-09-10T07:39:51.694Z,88.05
2018-09-10T07:41:01.779Z,88.34
2018-09-10T07:42:11.872Z,88.34
2018-09-10T07:43:22.057Z,88.15
2018-09-10T07:44:32.376Z,88.15
2018-09-10T07:45:42.471Z,88.24
2018-09-10T07:46:52.546Z,87.76
2018-09-10T07:48:02.406Z,87.99
2018-09-10T07:49:11.963Z,87.99
2018-09-10T07:50:21.848Z,87.99
2018-09-10T07:51:32.065Z,87.99
2018-09-10T07:52:41.878Z,87.9
2018-09-10T07:53:51.997Z,87.65
2018-09-10T07:55:02.095Z,87.75
2018-09-10T07:56:12.190Z,87.65
2018-09-10T07:57:22.001Z,87.95
2018-09-10T07:58:31.809Z,87.65
2018-09-10T07:59:41.633Z,87.65
2018-09-10T08:00:51.849Z,87.65
2018-09-10T08:02:01.737Z,88.04
2018-09-10T08:03:11.934Z,88.09
2018-09-10T08:04:22.042Z,87.89
2018-09-10T08:05:31.933Z,87.89
2018-09-10T08:06:42.014Z,87.89
2018-09-10T08:07:52.104Z,87.99
2018-09-10T08:09:01.952Z,88.28
2018-09-10T08:10:12.376Z,87.79
2018-09-10T08:11:22.707Z,87.6
2018-09-10T08:12:32.790Z,88.32
2018-09-10T08:13:42.621Z,87.79
2018-09-10T08:14:52.718Z,88.03
2018-09-10T08:16:02.608Z,87.84
2018-09-10T08:17:12.427Z,87.93
2018-09-10T08:18:22.239Z,87.54
2018-09-10T08:19:32.330Z,87.64
2018-09-10T08:20:42.432Z,87.74
2018-09-10T08:21:52.244Z,87.54
2018-09-10T08:23:02.319Z,87.45
2018-09-10T08:25:37.236Z,87.59
2018-09-10T08:26:47.055Z,88.56
2018-09-10T08:27:56.673Z,87.4
2018-09-10T08:29:06.780Z,88.46
2018-09-10T08:30:31.642Z,88.27
2018-09-10T08:31:41.899Z,88.37
2018-09-10T08:32:52.231Z,88.27
2018-09-10T08:34:02.043Z,87.73
2018-09-10T08:35:12.125Z,87.44
2018-09-10T08:36:22.259Z,88.41
2018-09-10T08:37:32.351Z,88.41
2018-09-10T08:38:42.429Z,88.41
2018-09-10T08:39:52.520Z,87.73
2018-09-10T08:41:03.304Z,88.31
2018-09-10T08:42:13.444Z,88.12
2018-09-10T08:43:23.255Z,88.41
2018-09-10T08:44:33.089Z,87.73
2018-09-10T08:45:43.181Z,87.58
2018-09-10T08:46:53.278Z,87.63
2018-09-10T08:48:03.114Z,87.58
2018-09-10T08:49:13.302Z,87.77
2018-09-10T08:50:23.380Z,87.68
2018-09-10T08:51:33.252Z,87.87
2018-09-10T08:52:43.071Z,87.77
2018-09-10T08:53:53.353Z,87.58
2018-09-10T08:55:04.489Z,88.01
2018-09-10T08:56:16.209Z,87.62
2018-09-10T08:57:26.903Z,87.82
2018-09-10T08:58:36.737Z,87.91
2018-09-10T08:59:46.809Z,87.82
2018-09-10T09:00:56.632Z,87.82
2018-09-10T09:02:06.618Z,87.91
2018-09-10T09:03:16.436Z,87.62
2018-09-10T09:04:26.530Z,88.01
2018-09-10T09:05:36.391Z,87.91
2018-09-10T09:06:45.960Z,87.72
2018-09-10T09:07:55.788Z,87.72
2018-09-10T09:09:06.520Z,87.72
2018-09-10T09:10:16.604Z,87.86
2018-09-10T09:11:27.028Z,87.52
2018-09-10T09:12:36.868Z,87.27
2018-09-10T09:13:46.962Z,87.76
2018-09-10T09:14:56.796Z,87.27
2018-09-10T09:16:06.862Z,88.15
2018-09-10T09:17:16.984Z,87.18
2018-09-10T09:18:27.480Z,88
2018-09-10T09:19:37.580Z,87.9
2018-09-10T09:20:47.681Z,87.71
2018-09-10T09:21:57.769Z,87.9
2018-09-10T09:23:08.275Z,87.61
2018-09-10T09:24:18.825Z,87.51
2018-09-10T09:25:28.675Z,87.71
2018-09-10T09:26:38.768Z,87.36
2018-09-10T09:27:48.858Z,87.65
2018-09-10T09:28:58.737Z,87.65
2018-09-10T09:30:08.311Z,87.65
2018-09-10T09:31:18.510Z,87.65
2018-09-10T09:32:28.619Z,87.75
2018-09-10T09:33:38.423Z,87.65
2018-09-10T09:34:48.588Z,87.95
2018-09-10T09:35:58.673Z,87.95
2018-09-10T09:37:08.819Z,87.55
2018-09-10T09:38:18.643Z,87.95
2018-09-10T09:39:28.729Z,87.55
2018-09-10T09:40:39.118Z,87.65
2018-09-10T09:41:48.932Z,87.65
2018-09-10T09:42:59.029Z,87.89
2018-09-10T09:44:09.270Z,87.89
2018-09-10T09:45:19.089Z,87.7
2018-09-10T09:46:29.225Z,87.4
2018-09-10T09:47:39.305Z,87.4
2018-09-10T09:48:49.367Z,87.4
2018-09-10T09:49:59.449Z,87.3
2018-09-10T09:51:09.746Z,87.35
2018-09-10T09:52:20.213Z,87.64
2018-09-10T09:53:30.041Z,87.45
2018-09-10T09:54:40.119Z,87.74
2018-09-10T09:55:49.934Z,87.64
2018-09-10T09:57:00.076Z,87.45
2018-09-10T09:58:09.945Z,87.64
2018-09-10T09:59:19.755Z,87.64
2018-09-10T10:00:29.576Z,87.64
2018-09-10T10:01:39.681Z,87.74
2018-09-10T10:02:49.497Z,87.49
2018-09-10T10:03:59.999Z,87.68
2018-09-10T10:05:10.345Z,87.39
2018-09-10T10:06:20.175Z,87.1
2018-09-10T10:07:30.304Z,87.39
2018-09-10T10:08:40.386Z,87.68
2018-09-10T10:09:50.262Z,87.29
2018-09-10T10:11:00.356Z,87.68
2018-09-10T10:12:10.428Z,87.49
2018-09-10T10:13:21.174Z,87.1
2018-09-10T10:14:31.262Z,87.1
2018-09-10T10:15:41.396Z,87.05
2018-09-10T10:16:51.213Z,87.53
2018-09-10T10:18:01.301Z,87.53
2018-09-10T10:19:11.111Z,87.05
2018-09-10T10:20:21.205Z,87.63
2018-09-10T10:21:31.096Z,87.53
2018-09-10T10:22:41.210Z,87.73
2018-09-10T10:23:51.297Z,87.43
2018-09-10T10:25:01.390Z,87.53
2018-09-10T10:26:11.483Z,87.53
2018-09-10T10:27:21.673Z,87.73
2018-09-10T10:28:31.775Z,87.67
2018-09-10T10:29:41.860Z,87.63
2018-09-10T10:30:51.940Z,87.19
2018-09-10T10:32:02.014Z,87.38
2018-09-10T10:33:12.158Z,86.99
2018-09-10T10:34:22.261Z,87.19
2018-09-10T10:35:32.350Z,86.8
2018-09-10T10:36:42.435Z,86.8
2018-09-10T10:37:52.025Z,86.8
2018-09-10T10:39:01.642Z,86.94
2018-09-10T10:40:11.874Z,86.84
2018-09-10T10:41:21.991Z,86.94
2018-09-10T10:42:32.071Z,86.84
2018-09-10T10:43:42.160Z,87.04
2018-09-10T10:44:52.253Z,87.04
2018-09-10T10:46:02.334Z,86.94
2018-09-10T10:47:12.413Z,86.74
2018-09-10T10:48:22.308Z,86.94
2018-09-10T10:49:32.143Z,86.94
2018-09-10T10:50:42.221Z,86.94
2018-09-10T10:51:52.305Z,86.94
2018-09-10T10:53:02.390Z,87.08
2018-09-10T10:54:12.496Z,86.79
2018-09-10T10:55:22.317Z,86.98
2018-09-10T10:56:32.190Z,87.08
2018-09-10T10:57:42.020Z,86.88
2018-09-10T10:58:51.827Z,86.88
2018-09-10T11:00:01.641Z,87.18
2018-09-10T11:01:11.736Z,87.37
2018-09-10T11:02:21.301Z,86.98
2018-09-10T11:03:31.369Z,87.12
2018-09-10T11:04:41.442Z,86.93
2018-09-10T11:05:51.277Z,87.02
2018-09-10T11:07:01.363Z,87.12
2018-09-10T11:08:11.431Z,87.02
2018-09-10T11:09:21.254Z,87.02
2018-09-10T11:10:31.355Z,87.12
2018-09-10T11:11:41.422Z,87.02
2018-09-10T11:12:51.254Z,87.02
2018-09-10T11:14:01.346Z,87.22
2018-09-10T11:15:11.171Z,87.22
2018-09-10T11:16:21.249Z,87.12
2018-09-10T11:17:31.140Z,87.02
2018-09-10T11:18:41.233Z,87.02
2018-09-10T11:19:51.316Z,87.26
2018-09-10T11:21:01.165Z,87.26
2018-09-10T11:22:10.986Z,87.46
2018-09-10T11:23:20.900Z,87.46
2018-09-10T11:24:31.181Z,87.46
2018-09-10T11:25:41.331Z,87.46
2018-09-10T11:26:51.452Z,87.21
2018-09-10T11:28:01.534Z,87.11
2018-09-10T11:29:11.656Z,87.21
2018-09-10T11:30:21.777Z,87.11
2018-09-10T11:31:32.116Z,87.3
2018-09-10T11:32:41.662Z,87.01
2018-09-10T11:33:51.756Z,87.11
2018-09-10T11:35:01.829Z,87.21
2018-09-10T11:36:11.670Z,86.91
2018-09-10T11:37:21.832Z,87.3
2018-09-10T11:38:31.942Z,87.01
2018-09-10T11:39:41.771Z,86.72
2018-09-10T11:40:51.856Z,86.72
2018-09-10T11:42:01.953Z,87.01
2018-09-10T11:43:12.054Z,86.91
2018-09-10T11:44:22.155Z,87.11
2018-09-10T11:45:32.248Z,86.91
2018-09-10T11:46:42.525Z,86.91
2018-09-10T11:47:52.696Z,86.91
2018-09-10T11:49:02.871Z,87.11
2018-09-10T11:50:12.983Z,87.11
2018-09-10T11:51:23.099Z,86.62
2018-09-10T11:52:33.209Z,86.91
2018-09-10T11:53:43.312Z,87.11
2018-09-10T11:54:53.419Z,86.95
2018-09-10T11:56:03.526Z,87.01
2018-09-10T11:57:13.669Z,86.91
2018-09-10T11:58:23.237Z,87.05
2018-09-10T11:59:33.333Z,86.82
2018-09-10T12:00:43.407Z,86.76
2018-09-10T12:01:53.649Z,86.85
2018-09-10T12:03:03.853Z,86.95
2018-09-10T12:04:13.949Z,86.95
2018-09-10T12:05:23.791Z,87.15
2018-09-10T12:06:33.632Z,87.15
2018-09-10T12:07:43.749Z,87.34
2018-09-10T12:08:53.631Z,87.15
2018-09-10T12:10:03.740Z,86.95
2018-09-10T12:11:13.836Z,86.95
2018-09-10T12:12:23.926Z,86.7
2018-09-10T12:13:34.108Z,87.15
2018-09-10T12:14:44.617Z,86.85
2018-09-10T12:15:54.695Z,86.9
2018-09-10T12:17:04.802Z,86.76
2018-09-10T12:18:14.889Z,86.99
2018-09-10T12:19:24.739Z,87.24
2018-09-10T12:20:34.888Z,87.05
2018-09-10T12:21:45.034Z,87.05
2018-09-10T12:22:54.858Z,87.54
2018-09-10T12:24:04.956Z,87.64
2018-09-10T12:25:15.045Z,87.34
2018-09-10T12:26:25.258Z,87.24
2018-09-10T12:27:35.176Z,87.34
2018-09-10T12:28:45.301Z,87.24
2018-09-10T12:29:55.402Z,86.95
2018-09-10T12:31:04.970Z,87.15
2018-09-10T12:32:15.093Z,86.95
2018-09-10T12:33:25.119Z,86.95
2018-09-10T12:34:34.932Z,87.15
2018-09-10T12:35:44.758Z,86.95
2018-09-10T12:36:54.568Z,86.95
2018-09-10T12:38:04.706Z,87.24
2018-09-10T12:39:14.800Z,87.05
2018-09-10T12:40:25.198Z,87.05
2018-09-10T12:41:35.312Z,86.95
2018-09-10T12:42:45.133Z,87.19
2018-09-10T12:43:55.324Z,86.99
2018-09-10T12:45:05.423Z,87.19
2018-09-10T12:46:15.509Z,86.95
2018-09-10T12:47:25.207Z,87.34
2018-09-10T12:48:35.286Z,87.24
2018-09-10T12:49:45.425Z,86.95
2018-09-10T12:50:55.510Z,87.34
2018-09-10T12:52:05.584Z,87.44
2018-09-10T12:53:15.693Z,87.34
2018-09-10T12:54:25.799Z,87.34
2018-09-10T12:55:35.925Z,86.95
2018-09-10T12:56:46.021Z,87.15
2018-09-10T12:57:56.119Z,87.15
2018-09-10T12:59:05.943Z,87.34
2018-09-10T13:00:16.081Z,87.05
2018-09-10T13:01:26.218Z,87.34
2018-09-10T13:02:36.117Z,87.34
2018-09-10T13:03:46.204Z,87.24
2018-09-10T13:04:56.033Z,87.15
2018-09-10T13:06:05.843Z,87.34
2018-09-10T13:07:15.959Z,87.15
2018-09-10T13:08:26.041Z,86.95
2018-09-10T13:09:36.128Z,87.15
2018-09-10T13:10:46.337Z,86.7
2018-09-10T13:11:56.455Z,86.7
2018-09-10T13:13:06.542Z,86.99
2018-09-10T13:14:16.630Z,86.99
2018-09-10T13:15:26.787Z,86.7
2018-09-10T13:16:36.876Z,86.99
2018-09-10T13:17:46.984Z,87.38
2018-09-10T13:18:57.079Z,87.09
2018-09-10T13:20:06.905Z,87.09
2018-09-10T13:21:17.087Z,87.19
2018-09-10T13:22:27.191Z,87.09
2018-09-10T13:23:37.279Z,87.59
2018-09-10T13:24:47.360Z,87.59
2018-09-10T13:25:57.166Z,87.19
2018-09-10T13:27:07.269Z,87.44
2018-09-10T13:28:17.097Z,87.19
2018-09-10T13:29:27.211Z,87.19
2018-09-10T13:30:37.347Z,87.19
2018-09-10T13:31:47.189Z,87.19
2018-09-10T13:32:57.229Z,86.99
2018-09-10T13:34:07.344Z,86.99
2018-09-10T13:35:17.421Z,86.99
2018-09-10T13:36:27.274Z,86.9
2018-09-10T13:37:37.586Z,87.19
2018-09-10T13:38:47.716Z,87.19
2018-09-10T13:39:57.818Z,87.09
2018-09-10T13:41:07.886Z,86.99
2018-09-10T13:42:17.965Z,86.8
2018-09-10T13:43:28.065Z,86.9
2018-09-10T13:44:38.250Z,86.7
2018-09-10T13:45:48.337Z,86.65
2018-09-10T13:46:58.404Z,86.45
2018-09-10T13:48:08.255Z,86.65
2018-09-10T13:49:18.087Z,86.55
2018-09-10T13:50:28.173Z,86.45
2018-09-10T13:51:37.728Z,86.65
2018-09-10T13:52:47.825Z,86.7
2018-09-10T13:53:58.016Z,86.99
2018-09-10T13:55:07.990Z,87.29
2018-09-10T13:56:18.127Z,87.19
2018-09-10T13:57:28.228Z,87.09
2018-09-10T13:58:38.319Z,87.09
2018-09-10T13:59:48.607Z,87.29
2018-09-10T14:00:58.752Z,87.38
2018-09-10T14:02:08.895Z,87.09
2018-09-10T14:03:18.983Z,87.29
2018-09-10T14:04:29.119Z,87.19
2018-09-10T14:05:39.225Z,87.38
2018-09-10T14:06:49.334Z,87.38
2018-09-10T14:07:59.471Z,87.59
2018-09-10T14:09:09.607Z,87.59
2018-09-10T14:10:19.711Z,87.59
2018-09-10T14:11:29.883Z,87.15
2018-09-10T14:12:39.992Z,87.34
2018-09-10T14:13:49.906Z,87.74
2018-09-10T14:15:00.010Z,87.74
2018-09-10T14:16:10.125Z,88.13
2018-09-10T14:17:20.487Z,87.54
2018-09-10T14:18:31.469Z,87.79
2018-09-10T14:19:41.585Z,87.84
2018-09-10T14:20:51.707Z,87.6
2018-09-10T14:22:01.559Z,88.13
2018-09-10T14:23:11.666Z,87.7
2018-09-10T14:24:21.520Z,87.6
2018-09-10T14:25:31.745Z,87.93
2018-09-10T14:26:41.338Z,87.84
2018-09-10T14:27:51.454Z,87.74
2018-09-10T14:29:01.285Z,87.74
2018-09-10T14:30:11.394Z,87.5
2018-09-10T14:31:21.255Z,87.5
2018-09-10T14:32:31.355Z,87.93
2018-09-10T14:33:41.457Z,87.74
2018-09-10T14:34:51.756Z,87.7
2018-09-10T14:36:01.810Z,87.6
2018-09-10T14:37:12.495Z,87.89
2018-09-10T14:38:22.754Z,87.3
2018-09-10T14:39:32.883Z,87.15
2018-09-10T14:40:42.753Z,87.3
2018-09-10T14:41:52.879Z,87.01
2018-09-10T14:43:02.933Z,87.05
2018-09-10T14:44:13.096Z,87.34
2018-09-10T14:45:23.206Z,87.05
2018-09-10T14:46:33.311Z,87.15
2018-09-10T14:47:43.419Z,87.34
2018-09-10T14:48:53.594Z,87.4
2018-09-10T14:50:03.953Z,87.5
2018-09-10T14:51:13.564Z,87.84
2018-09-10T14:52:23.406Z,87.3
2018-09-10T14:53:33.513Z,87.79
2018-09-10T14:54:43.943Z,87.24
2018-09-10T14:55:53.937Z,87.5
2018-09-10T14:57:03.761Z,87.24
2018-09-10T14:58:13.861Z,87.05
2018-09-10T14:59:23.475Z,87.05
2018-09-10T15:00:33.624Z,87.24
2018-09-10T15:01:43.707Z,87.34
2018-09-10T15:02:53.781Z,87.05
2018-09-10T15:04:03.614Z,87.15
2018-09-10T15:05:13.804Z,87.34
2018-09-10T15:06:23.941Z,87.05
2018-09-10T15:07:34.052Z,86.95
2018-09-10T15:08:44.152Z,87.15
2018-09-10T15:09:54.269Z,87.24
2018-09-10T15:11:04.179Z,87.54
2018-09-10T15:12:14.437Z,87.54
2018-09-10T15:13:24.764Z,87.84
2018-09-10T15:14:35.187Z,87.74
2018-09-10T15:15:45.777Z,87.93
2018-09-10T15:16:55.858Z,87.64
2018-09-10T15:18:05.685Z,87.7
2018-09-10T15:19:16.205Z,87.79
2018-09-10T15:20:25.977Z,88.09
2018-09-10T15:21:36.060Z,88.09
2018-09-10T15:22:46.163Z,88.38
2018-09-10T15:23:55.992Z,88.28
2018-09-10T15:25:06.265Z,88.48
2018-09-10T15:26:16.233Z,88.23
2018-09-10T15:27:26.326Z,88.04
2018-09-10T15:28:36.423Z,88.68
2018-09-10T15:29:46.520Z,88.39
2018-09-10T15:30:56.615Z,88.58
2018-09-10T15:32:06.700Z,88.78
2018-09-10T15:33:16.797Z,88.48
2018-09-10T15:34:27.078Z,88.58
2018-09-10T15:35:37.252Z,88.44
2018-09-10T15:36:46.813Z,88.39